Kezdőlap
METAR-TAF:

METAR-TAF

Repülőterek :

Municipal_Airport

Plymouth, New Hampshire, Amerikai Egyesült Államok

földrajzi szélesség: 43-46-45N, földrajzi hosszúság: 071-45-13W, magasság: 154 m

Jelenlegi meteorológiai megfigyelések

A jelentés 20 perccel ezelõtt készült, 15:55 UTC
Nyugati szél 9 kt széllökések: 16 kt
Hőmérséklet 10°C
Páratartalom 25%
Légköri nyomás 1016 hPa
Látótávolság: 16.1 km
Derült ég

METAR: K1P1 061555Z AUTO 27009G16KT 10SM CLR 10/M09 A3000 RMK AO2 T00971086

Idő: 12:15 (16:15 UTC)


TAF: hiányzik

Meteorológiai megfigyelések és előrejelzések több, mint 4000 repülőtéren (METAR és TAF jelentéseket).

A térképen piros és sárga pontok jelzik az elérhető meteorológiai állomásokat.

Mozgassa az egeret a pont fölött, hogy megjelenjen az állomás neve.

Azután kattintson az időjárási megfigyelések és előrejelzések megtekintéséhez.

A térkép megváltoztatása: kattintson a fekete keresztel jelölt zöld gombra ráközelítéshez, a vonallal jelölt zöld gombra távolításhoz, vagy a zöld nyilakra a szomszédos térképek eléréséhez.


METAR-TAF: